createdAt,value
2022-10-22T00:00:18.864Z,11.96
2022-10-22T00:02:46.408Z,11.80
2022-10-22T00:05:13.886Z,11.93
2022-10-22T00:07:41.700Z,12.00
2022-10-22T00:10:11.275Z,11.98
2022-10-22T00:12:38.783Z,11.95
2022-10-22T00:15:07.754Z,11.75
2022-10-22T00:17:35.986Z,11.84
2022-10-22T00:20:04.380Z,11.83
2022-10-22T00:22:31.854Z,11.61
2022-10-22T00:24:59.492Z,11.63
2022-10-22T00:27:28.307Z,11.71
2022-10-22T00:29:55.786Z,11.65
2022-10-22T00:32:23.258Z,11.69
2022-10-22T00:34:50.754Z,11.68
2022-10-22T00:37:18.197Z,11.79
2022-10-22T00:39:45.695Z,12.05
2022-10-22T00:42:17.550Z,12.20
2022-10-22T00:45:17.116Z,12.23
2022-10-22T00:47:50.025Z,12.23
2022-10-22T00:50:21.902Z,12.26
2022-10-22T00:52:51.897Z,12.27
2022-10-22T00:55:24.958Z,12.32
2022-10-22T00:57:56.222Z,12.32
2022-10-22T01:00:27.022Z,12.33
2022-10-22T01:02:56.209Z,12.44
2022-10-22T01:05:24.226Z,12.40
2022-10-22T01:07:54.574Z,12.40
2022-10-22T01:10:34.607Z,12.38
2022-10-22T01:13:11.001Z,12.40
2022-10-22T01:15:47.610Z,12.37
2022-10-22T01:18:22.113Z,12.38
2022-10-22T01:21:05.060Z,12.38
2022-10-22T01:23:59.647Z,12.37
2022-10-22T01:26:38.818Z,12.31
2022-10-22T01:29:13.926Z,12.33
2022-10-22T01:31:47.931Z,12.32
2022-10-22T01:34:20.418Z,12.28
2022-10-22T01:36:49.146Z,12.29
2022-10-22T01:39:17.965Z,12.32
2022-10-22T01:41:46.603Z,12.29
2022-10-22T01:44:26.994Z,12.30
2022-10-22T01:47:03.786Z,12.29
2022-10-22T01:49:42.532Z,12.26
2022-10-22T01:52:21.041Z,12.25
2022-10-22T01:54:58.022Z,12.19
2022-10-22T01:57:34.958Z,12.22
2022-10-22T02:00:09.339Z,12.21
2022-10-22T02:02:45.053Z,12.24
2022-10-22T02:05:17.591Z,12.19
2022-10-22T02:07:49.785Z,12.19
2022-10-22T02:10:19.805Z,12.17
2022-10-22T02:12:51.386Z,12.17
2022-10-22T02:15:22.706Z,12.22
2022-10-22T02:17:52.158Z,12.16
2022-10-22T02:20:23.690Z,12.15
2022-10-22T02:22:51.486Z,12.13
2022-10-22T02:25:19.133Z,12.08
2022-10-22T02:27:50.374Z,11.99
2022-10-22T02:30:22.303Z,12.05
2022-10-22T02:32:54.802Z,12.09
2022-10-22T02:35:24.201Z,12.12
2022-10-22T02:37:53.721Z,12.03
2022-10-22T02:40:21.629Z,12.07
2022-10-22T02:42:51.440Z,12.11
2022-10-22T02:45:21.445Z,12.09
2022-10-22T02:47:49.040Z,12.12
2022-10-22T02:50:16.786Z,12.05
2022-10-22T02:52:44.257Z,12.13
2022-10-22T02:55:11.789Z,12.13
2022-10-22T02:57:39.497Z,12.08
2022-10-22T03:00:09.166Z,12.01
2022-10-22T03:02:38.177Z,12.05
2022-10-22T03:05:06.604Z,12.01
2022-10-22T03:07:34.349Z,11.85
2022-10-22T03:10:01.820Z,11.93
2022-10-22T03:12:29.292Z,12.06
2022-10-22T03:14:56.732Z,12.00
2022-10-22T03:17:24.183Z,12.05
2022-10-22T03:19:52.982Z,11.94
2022-10-22T03:22:23.838Z,12.02
2022-10-22T03:24:55.312Z,12.01
2022-10-22T03:27:23.753Z,12.01
2022-10-22T03:29:53.446Z,12.03
2022-10-22T03:32:20.940Z,11.95
2022-10-22T03:34:48.726Z,11.95
2022-10-22T03:37:18.078Z,12.01
2022-10-22T03:39:46.137Z,11.95
2022-10-22T03:42:14.204Z,11.96
2022-10-22T03:44:41.994Z,11.99
2022-10-22T03:47:09.827Z,11.92
2022-10-22T03:49:37.477Z,11.89
2022-10-22T03:52:08.848Z,11.93
2022-10-22T03:57:11.706Z,11.90
2022-10-22T03:59:41.603Z,11.97
2022-10-22T04:02:09.940Z,11.86
2022-10-22T04:04:38.274Z,11.92
2022-10-22T04:07:06.265Z,11.87
2022-10-22T04:09:34.542Z,11.97
2022-10-22T04:12:05.401Z,11.93
2022-10-22T04:14:32.870Z,11.99
2022-10-22T04:17:00.353Z,11.89
2022-10-22T04:19:27.836Z,11.92
2022-10-22T04:21:55.289Z,11.97
2022-10-22T04:24:22.769Z,11.88
2022-10-22T04:26:50.225Z,11.96
2022-10-22T04:29:19.009Z,11.86
2022-10-22T04:31:46.462Z,11.91
2022-10-22T04:34:13.949Z,11.84
2022-10-22T04:36:41.389Z,11.84
2022-10-22T04:39:08.969Z,11.87
2022-10-22T04:41:38.241Z,11.97
2022-10-22T04:44:08.147Z,11.88
2022-10-22T04:46:39.749Z,11.70
2022-10-22T04:49:07.213Z,11.87
2022-10-22T04:51:34.664Z,11.89
2022-10-22T04:54:02.444Z,11.93
2022-10-22T04:56:31.385Z,11.96
2022-10-22T04:59:00.415Z,11.97
2022-10-22T05:01:29.773Z,11.89
2022-10-22T05:04:00.983Z,11.82
2022-10-22T05:06:29.791Z,11.68
2022-10-22T05:08:58.877Z,11.79
2022-10-22T05:11:28.777Z,11.80
2022-10-22T05:13:56.944Z,11.84
2022-10-22T05:16:24.480Z,11.92
2022-10-22T05:18:53.222Z,11.93
2022-10-22T05:21:22.529Z,11.79
2022-10-22T05:23:51.299Z,11.91
2022-10-22T05:26:20.921Z,11.76
2022-10-22T05:28:49.289Z,11.78
2022-10-22T05:31:18.087Z,11.87
2022-10-22T05:33:46.008Z,11.61
2022-10-22T05:36:16.617Z,11.58
2022-10-22T05:38:45.672Z,11.66
2022-10-22T05:41:14.696Z,11.51
2022-10-22T05:43:42.160Z,11.57
2022-10-22T05:46:11.677Z,11.31
2022-10-22T05:48:40.196Z,11.20
2022-10-22T05:51:08.937Z,11.16
2022-10-22T05:53:38.214Z,11.49
2022-10-22T05:56:09.468Z,11.35
2022-10-22T05:58:37.519Z,11.42
2022-10-22T06:01:06.504Z,11.72
2022-10-22T06:03:34.233Z,11.80
2022-10-22T06:06:03.802Z,11.87
2022-10-22T06:08:32.001Z,11.85
2022-10-22T06:10:59.698Z,11.20
2022-10-22T06:13:28.477Z,11.15
2022-10-22T06:15:56.035Z,11.16
2022-10-22T06:18:23.472Z,11.53
2022-10-22T06:20:50.957Z,11.25
2022-10-22T06:23:18.397Z,11.54
2022-10-22T06:25:45.885Z,11.73
2022-10-22T06:28:13.360Z,11.78
2022-10-22T06:30:44.344Z,11.63
2022-10-22T06:33:14.015Z,11.61
2022-10-22T06:35:41.492Z,11.56
2022-10-22T06:38:08.996Z,11.78
2022-10-22T06:40:36.440Z,11.84
2022-10-22T06:43:03.920Z,11.86
2022-10-22T06:45:31.388Z,11.88
2022-10-22T06:48:00.225Z,11.85
2022-10-22T06:50:27.737Z,11.85
2022-10-22T06:52:55.192Z,11.86
2022-10-22T06:55:22.646Z,11.91
2022-10-22T06:57:50.130Z,11.89
2022-10-22T07:00:17.779Z,11.87
2022-10-22T07:02:45.245Z,11.75
2022-10-22T07:05:14.071Z,11.73
2022-10-22T07:07:41.534Z,11.69
2022-10-22T07:10:09.889Z,11.09
2022-10-22T07:12:37.332Z,11.21
2022-10-22T07:15:05.276Z,11.35
2022-10-22T07:17:32.786Z,11.18
2022-10-22T07:20:00.305Z,11.51
2022-10-22T07:22:29.102Z,11.04
2022-10-22T07:24:56.544Z,11.35
2022-10-22T07:27:24.015Z,11.55
2022-10-22T07:29:51.468Z,11.47
2022-10-22T07:32:23.593Z,11.59
2022-10-22T07:34:51.318Z,11.69
2022-10-22T07:37:21.793Z,11.58
2022-10-22T07:39:50.704Z,11.78
2022-10-22T07:42:18.230Z,11.83
2022-10-22T07:44:45.708Z,11.81
2022-10-22T07:47:13.189Z,11.81
2022-10-22T07:49:40.660Z,11.91
2022-10-22T07:52:08.631Z,11.94
2022-10-22T07:54:36.120Z,11.98
2022-10-22T07:57:04.928Z,12.02
2022-10-22T07:59:32.377Z,12.03
2022-10-22T08:02:00.516Z,12.00
2022-10-22T08:04:28.789Z,12.04
2022-10-22T08:06:57.040Z,12.07
2022-10-22T08:09:25.232Z,12.08
2022-10-22T08:11:55.022Z,12.14
2022-10-22T08:14:25.293Z,12.14
2022-10-22T08:16:53.436Z,12.19
2022-10-22T08:19:21.889Z,12.24
2022-10-22T08:21:50.940Z,12.28
2022-10-22T08:24:20.892Z,12.34
2022-10-22T08:26:49.140Z,12.36
2022-10-22T08:29:17.796Z,12.46
2022-10-22T08:31:49.304Z,12.48
2022-10-22T08:34:20.672Z,12.60
2022-10-22T08:36:48.441Z,12.54
2022-10-22T08:39:18.910Z,12.55
2022-10-22T08:41:54.218Z,12.85
2022-10-22T08:44:38.741Z,12.77
2022-10-22T08:47:25.912Z,12.79
2022-10-22T08:49:54.747Z,12.81
2022-10-22T08:52:22.909Z,12.89
2022-10-22T08:54:54.139Z,12.97
2022-10-22T08:57:40.800Z,13.01
2022-10-22T09:00:14.490Z,12.92
2022-10-22T09:02:59.477Z,12.97
2022-10-22T09:05:41.185Z,13.09
2022-10-22T09:08:12.277Z,13.08
2022-10-22T09:10:45.250Z,13.14
2022-10-22T09:13:15.005Z,13.11
2022-10-22T09:15:44.990Z,13.25
2022-10-22T09:18:28.844Z,13.51
2022-10-22T09:20:59.168Z,13.61
2022-10-22T09:23:34.485Z,13.48
2022-10-22T09:26:02.290Z,13.57
2022-10-22T09:28:29.791Z,13.42
2022-10-22T09:33:28.068Z,13.50
2022-10-22T09:35:57.939Z,13.29
2022-10-22T09:38:27.776Z,13.46
2022-10-22T09:40:57.380Z,13.43
2022-10-22T09:43:25.516Z,13.26
2022-10-22T09:45:57.832Z,13.52
2022-10-22T09:48:34.272Z,13.49
2022-10-22T09:51:07.310Z,13.54
2022-10-22T09:53:38.304Z,13.55
2022-10-22T09:56:10.996Z,13.76
2022-10-22T09:58:46.278Z,13.88
2022-10-22T10:01:19.542Z,14.02
2022-10-22T10:03:49.587Z,14.01
2022-10-22T10:06:19.789Z,14.10
2022-10-22T10:08:47.436Z,14.07
2022-10-22T10:11:28.070Z,14.16
2022-10-22T10:14:09.501Z,14.17
2022-10-22T10:16:49.664Z,14.41
2022-10-22T10:19:31.360Z,14.48
2022-10-22T10:22:08.604Z,14.33
2022-10-22T10:24:51.320Z,14.67
2022-10-22T10:27:26.608Z,14.58
2022-10-22T10:29:58.952Z,14.75
2022-10-22T10:32:40.291Z,14.51
2022-10-22T10:35:22.121Z,14.96
2022-10-22T10:38:02.312Z,14.96
2022-10-22T10:40:35.876Z,15.17
2022-10-22T10:43:11.059Z,15.29
2022-10-22T10:45:48.345Z,14.88
2022-10-22T10:48:32.203Z,14.95
2022-10-22T10:51:08.626Z,14.80
2022-10-22T10:53:46.835Z,14.74
2022-10-22T10:56:35.605Z,14.83
2022-10-22T10:59:17.992Z,14.50
2022-10-22T11:02:00.484Z,14.32
2022-10-22T11:04:57.711Z,14.47
2022-10-22T11:07:34.625Z,14.41
2022-10-22T11:10:10.799Z,14.34
2022-10-22T11:12:43.419Z,14.45
2022-10-22T11:15:23.280Z,14.73
2022-10-22T11:17:53.631Z,14.75
2022-10-22T11:20:26.545Z,14.79
2022-10-22T11:23:18.832Z,14.95
2022-10-22T11:25:49.777Z,15.23
2022-10-22T11:28:22.485Z,15.16
2022-10-22T11:30:58.071Z,15.52
2022-10-22T11:33:30.155Z,15.16
2022-10-22T11:36:00.535Z,15.41
2022-10-22T11:38:32.805Z,15.45
2022-10-22T11:41:03.524Z,15.63
2022-10-22T11:43:33.481Z,15.60
2022-10-22T11:46:26.501Z,16.18
2022-10-22T11:49:06.855Z,15.93
2022-10-22T11:51:36.563Z,15.75
2022-10-22T11:54:30.414Z,15.48
2022-10-22T11:57:18.812Z,15.45
2022-10-22T11:59:51.221Z,15.20
2022-10-22T12:02:32.110Z,15.54
2022-10-22T12:05:42.795Z,15.45
2022-10-22T12:08:27.255Z,16.01
2022-10-22T12:11:05.208Z,15.78
2022-10-22T12:13:35.172Z,15.56
2022-10-22T12:16:04.876Z,15.52
2022-10-22T12:18:43.615Z,15.40
2022-10-22T12:21:13.499Z,16.08
2022-10-22T12:23:41.039Z,16.06
2022-10-22T12:26:24.721Z,15.95
2022-10-22T12:28:52.285Z,16.10
2022-10-22T12:31:19.760Z,15.93
2022-10-22T12:33:47.200Z,16.08
2022-10-22T12:36:19.315Z,15.93
2022-10-22T12:38:48.089Z,15.52
2022-10-22T12:41:15.936Z,15.64
2022-10-22T12:43:45.399Z,15.76
2022-10-22T12:46:14.471Z,15.94
2022-10-22T12:48:44.171Z,15.70
2022-10-22T12:51:17.240Z,15.84
2022-10-22T12:53:47.779Z,15.73
2022-10-22T12:56:17.264Z,16.10
2022-10-22T12:58:49.154Z,15.88
2022-10-22T13:01:19.182Z,15.83
2022-10-22T13:03:49.811Z,15.72
2022-10-22T13:06:26.100Z,15.66
2022-10-22T13:09:04.107Z,15.51
2022-10-22T13:11:33.232Z,15.30
2022-10-22T13:14:05.535Z,15.34
2022-10-22T13:16:33.175Z,15.40
2022-10-22T13:19:00.723Z,15.29
2022-10-22T13:21:33.976Z,15.38
2022-10-22T13:24:03.933Z,15.22
2022-10-22T13:26:34.615Z,15.49
2022-10-22T13:29:10.235Z,15.67
2022-10-22T13:31:38.163Z,15.98
2022-10-22T13:34:11.788Z,16.22
2022-10-22T13:36:41.435Z,16.06
2022-10-22T13:39:17.108Z,16.18
2022-10-22T13:41:44.647Z,16.13
2022-10-22T13:44:13.459Z,16.35
2022-10-22T13:46:42.829Z,16.20
2022-10-22T13:49:16.512Z,16.14
2022-10-22T13:51:45.023Z,16.10
2022-10-22T13:54:17.365Z,16.04
2022-10-22T13:56:44.807Z,16.08
2022-10-22T13:59:15.378Z,16.02
2022-10-22T14:01:45.883Z,15.87
2022-10-22T14:04:14.922Z,15.88
2022-10-22T14:06:42.420Z,16.05
2022-10-22T14:09:15.717Z,16.04
2022-10-22T14:11:43.296Z,16.18
2022-10-22T14:14:14.080Z,15.89
2022-10-22T14:16:42.983Z,15.94
2022-10-22T14:19:15.352Z,15.90
2022-10-22T14:21:42.863Z,15.94
2022-10-22T14:24:13.029Z,16.07
2022-10-22T14:26:41.372Z,15.85
2022-10-22T14:29:10.296Z,15.74
2022-10-22T14:34:13.664Z,15.62
2022-10-22T14:36:43.430Z,15.50
2022-10-22T14:39:10.906Z,15.62
2022-10-22T14:41:38.609Z,15.56
2022-10-22T14:44:06.273Z,15.82
2022-10-22T14:46:33.792Z,15.46
2022-10-22T14:49:01.237Z,15.44
2022-10-22T14:51:30.043Z,15.60
2022-10-22T14:53:57.498Z,15.48
2022-10-22T14:56:25.027Z,15.45
2022-10-22T14:58:53.629Z,15.35
2022-10-22T15:01:21.448Z,15.36
2022-10-22T15:03:48.989Z,15.40
2022-10-22T15:06:16.474Z,15.29
2022-10-22T15:08:45.618Z,15.36
2022-10-22T15:11:13.807Z,15.26
2022-10-22T15:13:42.029Z,15.21
2022-10-22T15:16:11.510Z,15.22
2022-10-22T15:18:39.544Z,15.18
2022-10-22T15:21:08.929Z,15.05
2022-10-22T15:23:39.068Z,15.07
2022-10-22T15:26:09.477Z,15.00
2022-10-22T15:28:37.839Z,14.84
2022-10-22T15:31:05.460Z,14.87
2022-10-22T15:33:33.555Z,14.82
2022-10-22T15:36:10.981Z,14.78
2022-10-22T15:38:38.456Z,14.77
2022-10-22T15:41:09.874Z,14.76
2022-10-22T15:43:38.753Z,14.68
2022-10-22T15:46:12.396Z,14.63
2022-10-22T15:48:39.895Z,14.67
2022-10-22T15:51:11.768Z,14.66
2022-10-22T15:53:39.293Z,14.57
2022-10-22T15:56:07.335Z,14.46
2022-10-22T15:58:35.067Z,14.52
2022-10-22T16:01:08.918Z,14.44
2022-10-22T16:03:36.984Z,14.45
2022-10-22T16:06:05.432Z,14.30
2022-10-22T16:08:32.935Z,14.27
2022-10-22T16:11:00.820Z,14.18
2022-10-22T16:13:28.292Z,13.87
2022-10-22T16:15:55.812Z,13.69
2022-10-22T16:18:24.610Z,13.96
2022-10-22T16:20:53.837Z,14.18
2022-10-22T16:23:21.316Z,14.14
2022-10-22T16:25:48.792Z,14.19
2022-10-22T16:28:16.459Z,14.30
2022-10-22T16:30:43.927Z,14.17
2022-10-22T16:33:12.456Z,14.19
2022-10-22T16:35:42.867Z,14.19
2022-10-22T16:38:12.144Z,14.26
2022-10-22T16:40:40.362Z,14.21
2022-10-22T16:43:07.840Z,14.23
2022-10-22T16:45:35.309Z,14.18
2022-10-22T16:48:02.788Z,14.11
2022-10-22T16:50:30.244Z,14.18
2022-10-22T16:52:59.059Z,14.16
2022-10-22T16:55:26.511Z,14.13
2022-10-22T16:57:54.338Z,14.08
2022-10-22T17:00:21.884Z,14.07
2022-10-22T17:02:53.913Z,14.03
2022-10-22T17:05:21.810Z,13.99
2022-10-22T17:07:50.047Z,13.97
2022-10-22T17:10:20.237Z,13.95
2022-10-22T17:12:48.695Z,13.95
2022-10-22T17:15:16.391Z,13.90
2022-10-22T17:17:48.172Z,13.86
2022-10-22T17:20:15.672Z,13.81
2022-10-22T17:22:43.404Z,13.81
2022-10-22T17:25:14.076Z,13.81
2022-10-22T17:27:44.742Z,13.76
2022-10-22T17:30:17.621Z,13.73
2022-10-22T17:32:45.157Z,13.69
2022-10-22T17:35:15.086Z,13.65
2022-10-22T17:37:43.147Z,13.61
2022-10-22T17:40:11.295Z,13.62
2022-10-22T17:42:38.889Z,13.62
2022-10-22T17:45:08.811Z,13.59
2022-10-22T17:47:37.240Z,13.55
2022-10-22T17:50:04.883Z,13.51
2022-10-22T17:52:32.395Z,13.47
2022-10-22T17:54:59.883Z,13.43
2022-10-22T17:57:27.466Z,13.42
2022-10-22T17:59:55.095Z,13.41
2022-10-22T18:02:24.036Z,13.42
2022-10-22T18:04:52.349Z,13.35
2022-10-22T18:07:20.867Z,13.32
2022-10-22T18:09:48.667Z,13.29
2022-10-22T18:12:17.978Z,13.28
2022-10-22T18:14:46.324Z,13.23
2022-10-22T18:19:49.039Z,13.20
2022-10-22T18:22:16.491Z,13.16
2022-10-22T18:24:43.972Z,13.13
2022-10-22T18:27:11.463Z,13.09
2022-10-22T18:29:38.960Z,13.10
2022-10-22T18:32:12.086Z,13.11
2022-10-22T18:34:40.843Z,13.08
2022-10-22T18:37:10.039Z,13.08
2022-10-22T18:39:37.537Z,13.01
2022-10-22T18:42:07.014Z,13.01
2022-10-22T18:44:35.712Z,12.99
2022-10-22T18:47:03.230Z,12.93
2022-10-22T18:49:30.748Z,12.90
2022-10-22T18:51:58.228Z,12.84
2022-10-22T18:54:27.287Z,12.82
2022-10-22T18:56:59.359Z,12.77
2022-10-22T18:59:29.809Z,12.83
2022-10-22T19:01:59.384Z,12.77
2022-10-22T19:04:30.819Z,12.80
2022-10-22T19:06:58.473Z,12.76
2022-10-22T19:09:27.459Z,12.77
2022-10-22T19:11:54.972Z,12.68
2022-10-22T19:14:22.443Z,12.64
2022-10-22T19:16:50.278Z,12.66
2022-10-22T19:19:20.330Z,12.61
2022-10-22T19:21:48.767Z,12.55
2022-10-22T19:24:16.825Z,12.57
2022-10-22T19:26:46.341Z,12.52
2022-10-22T19:29:16.007Z,12.48
2022-10-22T19:31:44.179Z,12.52
2022-10-22T19:34:11.848Z,12.54
2022-10-22T19:36:39.487Z,12.49
2022-10-22T19:39:07.600Z,12.49
2022-10-22T19:41:35.368Z,12.43
2022-10-22T19:44:04.331Z,12.38
2022-10-22T19:46:32.647Z,12.36
2022-10-22T19:49:00.651Z,12.34
2022-10-22T19:51:30.718Z,12.32
2022-10-22T19:53:59.439Z,12.33
2022-10-22T19:56:27.597Z,12.33
2022-10-22T19:58:55.083Z,12.13
2022-10-22T20:01:24.417Z,12.18
2022-10-22T20:03:52.049Z,12.04
2022-10-22T20:06:20.464Z,12.21
2022-10-22T20:08:50.035Z,12.19
2022-10-22T20:11:23.822Z,12.19
2022-10-22T20:13:52.621Z,12.13
2022-10-22T20:16:22.888Z,12.14
2022-10-22T20:18:51.803Z,12.08
2022-10-22T20:21:20.264Z,12.10
2022-10-22T20:23:48.185Z,12.13
2022-10-22T20:26:15.688Z,12.08
2022-10-22T20:28:43.311Z,12.03
2022-10-22T20:31:11.923Z,12.04
2022-10-22T20:33:39.895Z,12.04
2022-10-22T20:36:19.819Z,11.97
2022-10-22T20:38:48.221Z,11.97
2022-10-22T20:41:17.980Z,11.97
2022-10-22T20:43:45.980Z,11.97
2022-10-22T20:46:18.483Z,11.93
2022-10-22T20:48:46.200Z,11.91
2022-10-22T20:51:15.096Z,11.89
2022-10-22T20:53:42.995Z,11.85
2022-10-22T20:56:11.007Z,11.87
2022-10-22T20:58:39.126Z,11.82
2022-10-22T21:01:11.967Z,11.82
2022-10-22T21:03:39.606Z,11.79
2022-10-22T21:06:07.491Z,11.78
2022-10-22T21:08:36.336Z,11.80
2022-10-22T21:11:03.827Z,11.74
2022-10-22T21:13:32.227Z,11.68
2022-10-22T21:15:59.982Z,11.73
2022-10-22T21:18:27.471Z,11.74
2022-10-22T21:20:54.943Z,11.65
2022-10-22T21:23:22.455Z,11.71
2022-10-22T21:25:56.635Z,11.62
2022-10-22T21:28:24.462Z,11.66
2022-10-22T21:30:52.062Z,11.62
2022-10-22T21:33:19.658Z,11.62
2022-10-22T21:35:55.251Z,11.58
2022-10-22T21:38:24.143Z,11.59
2022-10-22T21:40:51.666Z,11.57
2022-10-22T21:43:21.138Z,11.55
2022-10-22T21:45:48.979Z,11.55
2022-10-22T21:48:16.549Z,11.51
2022-10-22T21:50:45.675Z,11.54
2022-10-22T21:53:13.230Z,11.60
2022-10-22T21:55:41.490Z,11.55
2022-10-22T21:58:09.563Z,11.50
2022-10-22T22:00:38.407Z,11.46
2022-10-22T22:03:07.471Z,11.47
2022-10-22T22:05:35.041Z,11.41
2022-10-22T22:08:02.607Z,11.38
2022-10-22T22:10:30.924Z,11.44
2022-10-22T22:12:58.430Z,11.43
2022-10-22T22:15:25.911Z,11.45
2022-10-22T22:17:54.751Z,11.43
2022-10-22T22:20:22.226Z,11.44
2022-10-22T22:22:49.943Z,11.35
2022-10-22T22:25:17.438Z,11.30
2022-10-22T22:27:45.186Z,11.30
2022-10-22T22:30:13.188Z,11.31
2022-10-22T22:32:40.687Z,11.29
2022-10-22T22:35:09.699Z,11.30
2022-10-22T22:37:37.194Z,11.31
2022-10-22T22:40:05.144Z,11.26
2022-10-22T22:42:32.695Z,11.35
2022-10-22T22:45:00.249Z,11.27
2022-10-22T22:47:27.732Z,11.25
2022-10-22T22:49:55.183Z,11.26
2022-10-22T22:52:23.971Z,11.20
2022-10-22T22:54:51.479Z,11.22
2022-10-22T22:57:19.183Z,11.21
2022-10-22T22:59:46.673Z,11.05
2022-10-22T23:02:14.207Z,11.12
2022-10-22T23:04:41.742Z,11.15
2022-10-22T23:07:09.271Z,11.04
2022-10-22T23:09:38.148Z,11.12
2022-10-22T23:12:06.418Z,11.16
2022-10-22T23:14:35.951Z,11.13
2022-10-22T23:17:06.590Z,11.09
2022-10-22T23:19:34.298Z,11.03
2022-10-22T23:22:01.870Z,11.03
2022-10-22T23:24:30.598Z,11.07
2022-10-22T23:27:02.695Z,11.08
2022-10-22T23:29:32.395Z,11.10
2022-10-22T23:32:02.075Z,10.93
2022-10-22T23:34:30.662Z,10.96
2022-10-22T23:36:59.058Z,11.03
2022-10-22T23:39:28.770Z,11.02
2022-10-22T23:41:56.960Z,11.06
2022-10-22T23:44:26.657Z,10.99
2022-10-22T23:46:55.107Z,10.97
2022-10-22T23:49:22.690Z,10.96
2022-10-22T23:51:50.153Z,10.94
2022-10-22T23:54:18.755Z,10.99
2022-10-22T23:56:46.128Z,10.95
